createdAt,value
2018-11-05T00:03:36.057Z,7.50
2018-11-05T00:08:39.699Z,9.00
2018-11-05T00:13:43.206Z,9.25
2018-11-05T00:18:47.258Z,8.25
2018-11-05T00:23:50.517Z,8.75
2018-11-05T00:28:54.216Z,8.20
2018-11-05T00:33:58.045Z,9.00
2018-11-05T00:39:01.530Z,9.50
2018-11-05T00:44:05.272Z,8.20
2018-11-05T00:49:08.938Z,7.75
2018-11-05T00:54:12.451Z,8.00
2018-11-05T00:59:16.698Z,8.60
2018-11-05T01:04:20.388Z,7.50
2018-11-05T01:09:24.118Z,6.75
2018-11-05T01:14:27.661Z,8.00
2018-11-05T01:19:31.160Z,8.00
2018-11-05T01:24:35.182Z,7.00
2018-11-05T01:29:38.639Z,8.00
2018-11-05T01:34:42.574Z,7.80
2018-11-05T01:39:46.058Z,7.40
2018-11-05T01:44:49.649Z,7.00
2018-11-05T01:49:53.177Z,7.20
2018-11-05T01:54:56.945Z,6.75
2018-11-05T02:00:01.484Z,7.25
2018-11-05T02:05:07.939Z,7.00
2018-11-05T02:10:16.912Z,7.00
2018-11-05T02:15:20.397Z,6.20
2018-11-05T02:20:23.975Z,8.40
2018-11-05T02:25:27.433Z,7.50
2018-11-05T02:30:30.926Z,6.25
2018-11-05T02:35:34.389Z,7.25
2018-11-05T02:40:37.859Z,6.75
2018-11-05T02:45:41.329Z,6.25
2018-11-05T02:50:44.787Z,7.60
2018-11-05T02:55:48.251Z,6.50
2018-11-05T03:00:51.729Z,6.50
2018-11-05T03:05:55.200Z,5.25
2018-11-05T03:10:58.650Z,6.75
2018-11-05T03:16:02.114Z,6.20
2018-11-05T03:21:06.397Z,6.75
2018-11-05T03:26:09.870Z,6.40
2018-11-05T03:31:13.322Z,5.00
2018-11-05T03:36:16.810Z,7.00
2018-11-05T03:41:20.308Z,6.00
2018-11-05T03:46:23.774Z,5.80
2018-11-05T03:51:27.245Z,6.25
2018-11-05T03:56:30.759Z,6.60
2018-11-05T04:01:34.222Z,5.75
2018-11-05T04:06:37.751Z,6.00
2018-11-05T04:11:41.220Z,6.25
2018-11-05T04:16:44.725Z,5.75
2018-11-05T04:21:48.195Z,4.75
2018-11-05T04:26:51.658Z,5.25
2018-11-05T04:31:55.219Z,7.20
2018-11-05T04:36:58.699Z,6.60
2018-11-05T04:42:02.178Z,5.50
2018-11-05T04:47:05.744Z,6.50
2018-11-05T04:52:09.275Z,6.00
2018-11-05T04:57:12.766Z,7.40
2018-11-05T05:02:16.236Z,7.75
2018-11-05T05:07:19.717Z,8.00
2018-11-05T05:12:23.209Z,8.25
2018-11-05T05:17:26.648Z,6.40
2018-11-05T05:22:30.269Z,9.75
2018-11-05T05:27:33.554Z,9.00
2018-11-05T05:32:37.019Z,8.75
2018-11-05T05:37:40.935Z,8.00
2018-11-05T05:42:44.422Z,8.75
2018-11-05T05:47:47.878Z,8.80
2018-11-05T05:52:51.333Z,8.00
2018-11-05T05:57:54.782Z,7.00
2018-11-05T06:02:58.246Z,9.00
2018-11-05T06:08:01.674Z,7.20
2018-11-05T06:13:05.301Z,8.25
2018-11-05T06:18:08.747Z,8.60
2018-11-05T06:23:12.224Z,7.00
2018-11-05T06:28:15.688Z,7.20
2018-11-05T06:33:19.147Z,8.00
2018-11-05T06:38:22.634Z,7.75
2018-11-05T06:43:26.087Z,8.00
2018-11-05T06:48:29.534Z,8.25
2018-11-05T06:53:33.047Z,8.40
2018-11-05T06:58:36.505Z,7.00
2018-11-05T07:03:39.943Z,7.60
2018-11-05T07:08:43.387Z,8.00
2018-11-05T07:13:46.815Z,7.75
2018-11-05T07:18:50.471Z,7.00
2018-11-05T07:23:53.702Z,7.60
2018-11-05T07:28:57.303Z,7.40
2018-11-05T07:34:00.866Z,9.00
2018-11-05T07:39:06.047Z,9.00
2018-11-05T07:44:09.926Z,23.00
2018-11-05T07:49:13.375Z,23.00
2018-11-05T07:54:16.879Z,24.20
2018-11-05T07:59:20.322Z,22.75
2018-11-05T08:04:23.822Z,23.20
2018-11-05T08:09:27.281Z,24.00
2018-11-05T08:14:30.750Z,23.50
2018-11-05T08:19:34.217Z,24.40
2018-11-05T08:24:37.691Z,20.50
2018-11-05T08:29:41.141Z,21.60
2018-11-05T08:34:44.591Z,22.00
2018-11-05T08:39:48.073Z,21.00
2018-11-05T08:44:51.580Z,22.75
2018-11-05T08:49:55.079Z,24.20
2018-11-05T08:54:58.552Z,20.50
2018-11-05T09:00:02.065Z,20.20
2018-11-05T09:05:06.310Z,20.80
2018-11-05T09:10:09.800Z,18.80
2018-11-05T09:15:14.536Z,24.50
2018-11-05T09:20:19.739Z,26.40
2018-11-05T09:25:23.203Z,25.80
2018-11-05T09:30:26.748Z,25.00
2018-11-05T09:35:30.190Z,24.00
2018-11-05T09:40:33.652Z,23.00
2018-11-05T09:45:37.262Z,24.00
2018-11-05T09:50:40.746Z,25.00
2018-11-05T09:55:44.212Z,24.00
2018-11-05T10:00:47.701Z,25.00
2018-11-05T10:05:51.171Z,24.75
2018-11-05T10:10:54.627Z,23.60
2018-11-05T10:15:58.100Z,23.75
2018-11-05T10:21:01.581Z,23.40
2018-11-05T10:26:05.264Z,22.60
2018-11-05T10:31:08.719Z,21.60
2018-11-05T10:36:12.163Z,21.75
2018-11-05T10:41:15.936Z,21.60
2018-11-05T10:46:19.449Z,22.00
2018-11-05T10:51:23.040Z,21.60
2018-11-05T10:56:26.400Z,22.75
2018-11-05T11:01:35.186Z,21.00
2018-11-05T11:06:38.623Z,21.75
2018-11-05T11:11:42.071Z,21.40
2018-11-05T11:16:45.583Z,20.40
2018-11-05T11:21:49.069Z,21.20
2018-11-05T11:26:52.511Z,21.50
2018-11-05T11:31:55.962Z,20.40
2018-11-05T11:36:59.468Z,20.00
2018-11-05T11:42:02.978Z,20.25
2018-11-05T11:47:06.393Z,19.75
2018-11-05T11:52:09.869Z,20.80
2018-11-05T11:57:13.298Z,20.50
2018-11-05T12:02:17.893Z,21.40
2018-11-05T12:07:21.329Z,22.25
2018-11-05T12:12:24.831Z,21.20
2018-11-05T12:17:28.273Z,20.00
2018-11-05T12:22:31.728Z,21.00
2018-11-05T12:27:35.274Z,21.00
2018-11-05T12:32:38.707Z,20.60
2018-11-05T12:37:44.279Z,20.75
2018-11-05T12:42:48.934Z,21.40
2018-11-05T12:47:52.377Z,23.00
2018-11-05T12:52:56.275Z,22.00
2018-11-05T12:57:59.744Z,20.00
2018-11-05T13:03:03.219Z,20.50
2018-11-05T13:08:06.684Z,19.50
2018-11-05T13:13:10.137Z,20.80
2018-11-05T13:18:13.639Z,22.00
2018-11-05T13:23:21.221Z,20.20
2018-11-05T13:28:24.694Z,19.25
2018-11-05T13:33:28.221Z,19.00
2018-11-05T13:38:31.738Z,19.00
2018-11-05T13:43:35.187Z,20.00
2018-11-05T13:48:39.162Z,20.75
2018-11-05T13:53:42.187Z,18.60
2018-11-05T13:58:45.684Z,17.80
2018-11-05T14:03:49.124Z,19.80
2018-11-05T14:08:52.744Z,18.80
2018-11-05T14:13:56.228Z,17.80
2018-11-05T14:18:59.691Z,19.00
2018-11-05T14:24:03.141Z,18.25
2018-11-05T14:29:06.913Z,19.75
2018-11-05T14:34:10.334Z,19.00
2018-11-05T14:39:14.936Z,18.20
2018-11-05T14:44:18.419Z,20.00
2018-11-05T14:49:21.847Z,18.80
2018-11-05T14:54:25.275Z,18.00
2018-11-05T14:59:28.714Z,19.00
2018-11-05T15:04:33.583Z,21.00
2018-11-05T15:09:37.038Z,20.00
2018-11-05T15:14:40.587Z,18.50
2018-11-05T15:19:44.539Z,19.60
2018-11-05T15:24:47.484Z,19.00
2018-11-05T15:29:50.981Z,20.20
2018-11-05T15:34:54.470Z,20.00
2018-11-05T15:39:57.902Z,20.20
2018-11-05T15:45:01.372Z,23.25
2018-11-05T15:50:07.290Z,19.00
2018-11-05T15:55:13.219Z,20.00
2018-11-05T16:00:19.056Z,18.20
2018-11-05T16:05:22.533Z,19.60
2018-11-05T16:10:27.440Z,19.25
2018-11-05T16:15:30.902Z,18.60
2018-11-05T16:20:34.356Z,19.00
2018-11-05T16:25:41.594Z,17.80
2018-11-05T16:30:46.483Z,20.50
2018-11-05T16:35:51.636Z,18.50
2018-11-05T16:40:57.698Z,18.50
2018-11-05T16:46:01.743Z,19.25
2018-11-05T16:51:05.814Z,18.75
2018-11-05T16:56:10.368Z,18.75
2018-11-05T17:01:14.761Z,18.40
2018-11-05T17:06:20.418Z,20.20
2018-11-05T17:11:23.906Z,19.00
2018-11-05T17:16:27.556Z,19.00
2018-11-05T17:21:31.063Z,19.00
2018-11-05T17:26:34.530Z,18.25
2018-11-05T17:31:38.018Z,19.20
2018-11-05T17:36:41.499Z,20.00
2018-11-05T17:41:45.009Z,18.75
2018-11-05T17:46:48.537Z,19.75
2018-11-05T17:51:52.038Z,19.40
2018-11-05T17:56:55.575Z,18.75
2018-11-05T18:01:59.076Z,19.60
2018-11-05T18:07:02.591Z,20.25
2018-11-05T18:12:06.129Z,17.60
2018-11-05T18:17:09.731Z,19.40
2018-11-05T18:22:13.256Z,18.00
2018-11-05T18:27:16.761Z,18.60
2018-11-05T18:32:21.228Z,19.00
2018-11-05T18:37:24.888Z,19.00
2018-11-05T18:42:28.430Z,18.00
2018-11-05T18:47:32.033Z,19.20
2018-11-05T18:52:35.674Z,18.75
2018-11-05T18:57:39.674Z,18.60
2018-11-05T19:02:43.267Z,18.60
2018-11-05T19:07:47.263Z,19.00
2018-11-05T19:12:51.751Z,19.75
2018-11-05T19:17:55.285Z,20.50
2018-11-05T19:22:58.996Z,19.50
2018-11-05T19:28:02.270Z,20.20
2018-11-05T19:33:06.470Z,19.50
2018-11-05T19:38:09.969Z,19.50
2018-11-05T19:43:13.524Z,19.00
2018-11-05T19:48:17.043Z,18.40
2018-11-05T19:53:20.642Z,19.00
2018-11-05T19:58:24.274Z,17.20
2018-11-05T20:03:27.806Z,18.75
2018-11-05T20:08:31.263Z,18.50
2018-11-05T20:13:34.900Z,19.00
2018-11-05T20:18:38.427Z,20.50
2018-11-05T20:23:42.158Z,19.40
2018-11-05T20:28:45.878Z,19.00
2018-11-05T20:33:49.381Z,21.00
2018-11-05T20:38:52.857Z,20.50
2018-11-05T20:43:56.374Z,20.00
2018-11-05T20:48:59.933Z,20.00
2018-11-05T20:54:03.518Z,20.00
2018-11-05T20:59:07.239Z,18.00
2018-11-05T21:04:10.868Z,19.80
2018-11-05T21:09:14.324Z,19.00
2018-11-05T21:14:17.913Z,19.25
2018-11-05T21:19:21.390Z,19.00
2018-11-05T21:24:25.558Z,18.00
2018-11-05T21:29:29.010Z,18.60
2018-11-05T21:34:32.483Z,18.75
2018-11-05T21:39:35.959Z,18.40
2018-11-05T21:44:39.466Z,19.00
2018-11-05T21:49:42.941Z,19.00
2018-11-05T21:54:46.423Z,18.00
2018-11-05T21:59:49.899Z,18.20
2018-11-05T22:04:53.372Z,16.00
2018-11-05T22:09:56.837Z,17.40
2018-11-05T22:15:00.326Z,16.75
2018-11-05T22:20:04.450Z,18.40
2018-11-05T22:25:08.099Z,18.00
2018-11-05T22:30:12.119Z,16.60
2018-11-05T22:35:15.599Z,16.60
2018-11-05T22:40:19.076Z,17.20
2018-11-05T22:45:22.570Z,17.75
2018-11-05T22:50:26.047Z,16.75
2018-11-05T22:55:29.556Z,18.00
2018-11-05T23:00:38.346Z,14.25
2018-11-05T23:05:41.879Z,16.40
2018-11-05T23:10:45.409Z,17.25
2018-11-05T23:15:48.925Z,16.75
2018-11-05T23:20:52.425Z,16.25
2018-11-05T23:25:55.897Z,17.00
2018-11-05T23:30:59.378Z,15.25
2018-11-05T23:36:02.896Z,16.60
2018-11-05T23:41:06.388Z,16.00
2018-11-05T23:46:09.876Z,15.40
2018-11-05T23:51:13.383Z,14.75
2018-11-05T23:56:16.872Z,15.40
